Terminal Aerodrome Forecast
Issued by NWS

Home | Current Version | Previous Version | Text Only | Print | Product List | Glossary On
Versions: 1 2 3 4 5 6 7 8 9 10 11 12 13 14 15 16 17 18 19 20 21 22 23 24 25 26 27 28 29 30
826
FTUS43 KDVN 050146 AAB
TAFCID
TAF AMD
KCID 050146Z 0502/0524 24006KT P6SM OVC009
     FM050500 22004KT 3SM BR OVC006
     FM050800 23004KT 1SM BR OVC002
     FM051600 17010KT 3SM BR SCT025
     FM052100 16010KT P6SM BKN250=

USA.gov is the U.S. government's official web portal to all federal, state and local government web resources and services.